Time;durP1;ratioP1;P1;durP2;ratioP2;P2;SDS_P1;SDS_P2;PMS_P1;PMS_P2;Temp;Humidity;BMP_temperature;BMP_pressure;BME280_temperature;BME280_humidity;BME280_pressure;Samples;Min_cycle;Max_cycle;Signal;HPM_P1;HPM_P2
2021/03/16 00:02:14;;;;;;;;;;;1.50;98.00;;;;;;5037245;28;20538;-68
2021/03/16 00:04:39;;;;;;;;;;;1.50;98.00;;;;;;5024288;28;19984;-68
2021/03/16 00:07:06;;;;;;;;;;;1.50;98.00;;;;;;5053318;28;19913;-69
2021/03/16 00:09:31;;;;;;;;;;;1.60;98.00;;;;;;5045358;28;19917;-69
2021/03/16 00:11:57;;;;;;;;;;;1.50;98.00;;;;;;5038317;28;20264;-68
2021/03/16 00:14:23;;;;;;;;;;;1.60;98.00;;;;;;5036814;28;20238;-69
2021/03/16 00:16:50;;;;;;;;;;;1.60;98.00;;;;;;5023619;28;20010;-68
2021/03/16 00:19:16;;;;;;;;;;;1.60;98.00;;;;;;5038274;28;19975;-69
2021/03/16 00:21:42;;;;;;;;;;;1.60;98.00;;;;;;5016580;28;19917;-68
2021/03/16 00:24:07;;;;;;;;;;;1.60;98.00;;;;;;5029872;28;19909;-69
2021/03/16 00:26:33;;;;;;;;;;;1.60;98.00;;;;;;5037808;28;19967;-69
2021/03/16 00:28:58;;;;;;;;;;;1.60;98.00;;;;;;5036523;28;20306;-68
2021/03/16 00:31:24;;;;;;;;;;;1.60;98.00;;;;;;5036514;28;19955;-68
2021/03/16 00:33:49;;;;;;;;;;;1.60;98.00;;;;;;5038477;28;19945;-68
2021/03/16 00:36:15;;;;;;;;;;;1.60;98.00;;;;;;5037981;28;20004;-68
2021/03/16 00:38:40;;;;;;;;;;;1.60;98.00;;;;;;5037951;28;19913;-67
2021/03/16 00:41:06;;;;;;;;;;;1.60;98.00;;;;;;5024579;28;19944;-69
2021/03/16 00:43:31;;;;;;;;;;;1.50;98.00;;;;;;5038079;28;19917;-68
2021/03/16 00:45:58;;;;;;;;;;;1.50;98.00;;;;;;5036123;28;19927;-69
2021/03/16 00:48:24;;;;;;;;;;;1.50;98.00;;;;;;5038646;28;19919;-69
2021/03/16 00:50:49;;;;;;;;;;;1.50;98.00;;;;;;5029183;28;19916;-68
2021/03/16 00:53:15;;;;;;;;;;;1.50;98.00;;;;;;5019337;28;19949;-69
2021/03/16 00:55:41;;;;;;;;;;;1.50;98.00;;;;;;5028862;28;19924;-68
2021/03/16 00:58:06;;;;;;;;;;;1.50;98.00;;;;;;5037813;28;19967;-69
2021/03/16 01:00:32;;;;;;;;;;;1.50;98.00;;;;;;5023076;28;19960;-69
2021/03/16 01:02:57;;;;;;;;;;;1.40;98.00;;;;;;5045750;28;19932;-70
2021/03/16 01:05:23;;;;;;;;;;;1.40;98.00;;;;;;5037371;28;20006;-69
2021/03/16 01:07:57;;;;;;;;;;;1.40;98.00;;;;;;5036343;28;19917;-69
2021/03/16 01:10:23;;;;;;;;;;;1.40;98.00;;;;;;5037303;28;19913;-68
2021/03/16 01:12:49;;;;;;;;;;;1.40;98.00;;;;;;5019481;28;20222;-70
2021/03/16 01:15:16;;;;;;;;;;;1.40;98.00;;;;;;5035928;28;19935;-68
2021/03/16 01:17:41;;;;;;;;;;;1.30;98.00;;;;;;5040885;28;20273;-69
2021/03/16 01:20:09;;;;;;;;;;;1.40;98.00;;;;;;5036810;28;19917;-69
2021/03/16 01:22:35;;;;;;;;;;;1.40;98.00;;;;;;5037280;28;19917;-69
2021/03/16 01:25:00;;;;;;;;;;;1.40;98.00;;;;;;5036711;28;20221;-71
2021/03/16 01:27:29;;;;;;;;;;;1.40;98.00;;;;;;5037153;28;19920;-69
2021/03/16 01:29:54;;;;;;;;;;;1.40;98.00;;;;;;5038125;28;19914;-69
2021/03/16 01:32:20;;;;;;;;;;;1.40;98.00;;;;;;5036271;28;19988;-69
2021/03/16 01:34:45;;;;;;;;;;;1.40;98.00;;;;;;5035864;28;20040;-68
2021/03/16 01:37:13;;;;;;;;;;;1.40;98.00;;;;;;5017009;28;19914;-67
2021/03/16 01:39:39;;;;;;;;;;;1.40;98.00;;;;;;5027736;28;19996;-68
2021/03/16 01:42:04;;;;;;;;;;;1.50;98.00;;;;;;5037096;28;20008;-69
2021/03/16 01:44:31;;;;;;;;;;;1.50;98.00;;;;;;5034173;28;19913;-68
2021/03/16 01:46:58;;;;;;;;;;;1.40;98.00;;;;;;5023964;28;19917;-69
2021/03/16 01:49:24;;;;;;;;;;;1.30;98.00;;;;;;5035298;28;19913;-68
2021/03/16 01:51:49;;;;;;;;;;;1.30;98.00;;;;;;5035364;28;20207;-69
2021/03/16 01:54:15;;;;;;;;;;;1.20;98.00;;;;;;5035204;28;19917;-69
2021/03/16 01:56:42;;;;;;;;;;;1.10;98.00;;;;;;5035188;28;19925;-68
2021/03/16 01:59:08;;;;;;;;;;;1.10;98.00;;;;;;5033927;28;19921;-68
2021/03/16 02:01:34;;;;;;;;;;;1.00;98.00;;;;;;5035437;28;19920;-70
2021/03/16 02:03:59;;;;;;;;;;;0.90;98.00;;;;;;5034828;28;19940;-70
2021/03/16 02:06:51;;;;;;;;;;;0.90;98.00;;;;;;5034366;28;19913;-70
2021/03/16 02:09:17;;;;;;;;;;;0.90;98.00;;;;;;5030949;28;19975;-69
2021/03/16 02:11:47;;;;;;;;;;;0.80;98.00;;;;;;5034936;28;20264;-69
2021/03/16 02:14:21;;;;;;;;;;;0.80;98.00;;;;;;5030830;28;19956;-68
2021/03/16 02:16:54;;;;;;;;;;;0.80;98.00;;;;;;5035005;28;19913;-70
2021/03/16 02:19:39;;;;;;;;;;;0.80;98.00;;;;;;5034941;28;20000;-70
2021/03/16 02:22:05;;;;;;;;;;;0.80;98.00;;;;;;5022734;28;19909;-68
2021/03/16 02:24:37;;;;;;;;;;;0.90;98.00;;;;;;5035306;28;19967;-70
2021/03/16 02:27:06;;;;;;;;;;;0.90;98.00;;;;;;5023106;28;20308;-70
2021/03/16 02:29:46;;;;;;;;;;;0.90;98.00;;;;;;5034373;28;19921;-69
2021/03/16 02:32:15;;;;;;;;;;;1.00;98.00;;;;;;5034926;28;20320;-70
2021/03/16 02:34:41;;;;;;;;;;;1.00;98.00;;;;;;5034651;28;19971;-69
2021/03/16 02:37:09;;;;;;;;;;;1.00;98.00;;;;;;5034591;28;20229;-70
2021/03/16 02:39:34;;;;;;;;;;;1.00;98.00;;;;;;5017535;28;19963;-70
2021/03/16 02:42:02;;;;;;;;;;;1.10;98.00;;;;;;5020475;28;19921;-70
2021/03/16 02:44:28;;;;;;;;;;;1.10;98.00;;;;;;5020759;28;20011;-68
2021/03/16 02:46:54;;;;;;;;;;;1.10;98.00;;;;;;5034881;28;19995;-70
2021/03/16 02:49:20;;;;;;;;;;;1.10;98.00;;;;;;5034788;28;20000;-70
2021/03/16 02:51:46;;;;;;;;;;;1.10;98.00;;;;;;5030201;28;20020;-68
2021/03/16 02:54:11;;;;;;;;;;;1.10;98.00;;;;;;5034405;28;20344;-70
2021/03/16 02:56:37;;;;;;;;;;;1.10;98.00;;;;;;5034181;28;20218;-68
2021/03/16 02:59:04;;;;;;;;;;;1.00;98.00;;;;;;5033056;28;19920;-69
2021/03/16 03:01:30;;;;;;;;;;;1.00;98.00;;;;;;5033945;28;20190;-70
2021/03/16 03:03:56;;;;;;;;;;;1.00;98.00;;;;;;5033925;28;19917;-69
2021/03/16 03:06:22;;;;;;;;;;;1.00;98.00;;;;;;5034245;28;20227;-68
2021/03/16 03:08:47;;;;;;;;;;;1.00;98.00;;;;;;5034548;28;19917;-70
2021/03/16 03:11:14;;;;;;;;;;;1.00;98.00;;;;;;5034856;28;19940;-68
2021/03/16 03:13:39;;;;;;;;;;;1.00;98.00;;;;;;5033923;28;19993;-70
2021/03/16 03:16:05;;;;;;;;;;;1.00;98.00;;;;;;5034969;28;20004;-68
2021/03/16 03:18:31;;;;;;;;;;;1.00;98.00;;;;;;5035059;28;19959;-70
2021/03/16 03:21:14;;;;;;;;;;;0.90;98.00;;;;;;5035259;28;19917;-68
2021/03/16 03:23:44;;;;;;;;;;;0.80;98.00;;;;;;5035078;28;19983;-69
2021/03/16 03:26:14;;;;;;;;;;;0.80;98.00;;;;;;5038728;28;19913;-68
2021/03/16 03:28:40;;;;;;;;;;;0.70;98.00;;;;;;5038110;28;19917;-69
2021/03/16 03:31:06;;;;;;;;;;;0.70;98.00;;;;;;5039210;28;20003;-67
2021/03/16 03:33:32;;;;;;;;;;;0.70;98.00;;;;;;5037620;28;19928;-68
2021/03/16 03:36:00;;;;;;;;;;;0.70;98.00;;;;;;5042184;28;20297;-69
2021/03/16 03:38:26;;;;;;;;;;;0.70;98.00;;;;;;5028517;28;20493;-69
2021/03/16 03:40:52;;;;;;;;;;;0.70;98.00;;;;;;5038922;28;19928;-67
2021/03/16 03:43:18;;;;;;;;;;;0.70;98.00;;;;;;5017842;28;20008;-69
2021/03/16 03:45:51;;;;;;;;;;;0.70;98.00;;;;;;5036656;28;19913;-68
2021/03/16 03:48:17;;;;;;;;;;;0.70;98.00;;;;;;5034974;28;19913;-69
2021/03/16 03:50:49;;;;;;;;;;;0.70;98.00;;;;;;5023853;28;19963;-69
2021/03/16 03:53:15;;;;;;;;;;;0.70;98.00;;;;;;5038404;28;20218;-69
2021/03/16 03:55:42;;;;;;;;;;;0.70;98.00;;;;;;5038511;28;19924;-68
2021/03/16 03:58:08;;;;;;;;;;;0.70;98.00;;;;;;5027853;28;19917;-69
2021/03/16 04:00:34;;;;;;;;;;;0.70;98.00;;;;;;5023361;28;20336;-70
2021/03/16 04:03:00;;;;;;;;;;;0.70;98.00;;;;;;5038224;28;19925;-70
2021/03/16 04:05:26;;;;;;;;;;;0.70;98.00;;;;;;5018723;28;20187;-69
2021/03/16 04:07:52;;;;;;;;;;;0.70;98.00;;;;;;5037599;28;19978;-68
2021/03/16 04:10:18;;;;;;;;;;;0.70;98.00;;;;;;5028614;28;19924;-69
2021/03/16 04:12:43;;;;;;;;;;;0.80;98.00;;;;;;5037694;28;19913;-68
2021/03/16 04:15:10;;;;;;;;;;;0.70;98.00;;;;;;5036848;28;19924;-69
2021/03/16 04:17:36;;;;;;;;;;;0.70;98.00;;;;;;5037915;28;19921;-68
2021/03/16 04:20:06;;;;;;;;;;;0.70;98.00;;;;;;5020929;28;19967;-68
2021/03/16 04:22:32;;;;;;;;;;;0.70;98.00;;;;;;5036918;28;19975;-69
2021/03/16 04:24:57;;;;;;;;;;;0.80;98.00;;;;;;5038457;28;19936;-68
2021/03/16 04:27:23;;;;;;;;;;;0.80;98.00;;;;;;5037699;28;19924;-68
2021/03/16 04:29:49;;;;;;;;;;;0.80;98.00;;;;;;5026140;28;19914;-68
2021/03/16 04:32:14;;;;;;;;;;;0.80;98.00;;;;;;5018911;28;19918;-68
2021/03/16 04:34:43;;;;;;;;;;;0.80;98.00;;;;;;5034879;28;19917;-70
2021/03/16 04:37:08;;;;;;;;;;;0.80;98.00;;;;;;5037638;28;19975;-70
2021/03/16 04:39:34;;;;;;;;;;;0.90;98.00;;;;;;5037586;28;20301;-70
2021/03/16 04:41:59;;;;;;;;;;;0.90;98.00;;;;;;5020039;28;20226;-70
2021/03/16 04:44:25;;;;;;;;;;;0.90;98.00;;;;;;5020279;28;19967;-69
2021/03/16 04:46:50;;;;;;;;;;;0.90;98.00;;;;;;5017261;28;19918;-69
2021/03/16 04:49:16;;;;;;;;;;;0.90;98.00;;;;;;5018843;28;19917;-69
2021/03/16 04:51:42;;;;;;;;;;;0.90;98.00;;;;;;5016509;28;19913;-70
2021/03/16 04:54:07;;;;;;;;;;;0.80;98.00;;;;;;5023909;28;20012;-70
2021/03/16 04:56:33;;;;;;;;;;;0.90;98.00;;;;;;5016737;28;19913;-70
2021/03/16 04:58:59;;;;;;;;;;;0.90;98.00;;;;;;5011111;28;19968;-69
2021/03/16 05:01:25;;;;;;;;;;;0.90;98.00;;;;;;5019932;28;19925;-69
2021/03/16 05:03:50;;;;;;;;;;;0.90;98.00;;;;;;5015943;28;19913;-69
2021/03/16 05:06:16;;;;;;;;;;;0.90;98.00;;;;;;5030353;28;19913;-69
2021/03/16 05:08:41;;;;;;;;;;;0.90;98.00;;;;;;5016987;28;20320;-70
2021/03/16 05:11:07;;;;;;;;;;;0.90;98.00;;;;;;5022263;28;19921;-69
2021/03/16 05:13:32;;;;;;;;;;;0.90;98.00;;;;;;5021428;28;20024;-69
2021/03/16 05:16:01;;;;;;;;;;;0.90;98.00;;;;;;5021887;28;19918;-70
2021/03/16 05:18:27;;;;;;;;;;;0.90;98.00;;;;;;5022929;28;19913;-69
2021/03/16 05:20:52;;;;;;;;;;;0.90;98.00;;;;;;5019129;28;19922;-68
2021/03/16 05:23:18;;;;;;;;;;;0.80;98.00;;;;;;5012320;28;19929;-69
2021/03/16 05:25:43;;;;;;;;;;;0.80;98.00;;;;;;5017470;28;19913;-69
2021/03/16 05:28:09;;;;;;;;;;;0.80;98.00;;;;;;5017993;28;19917;-69
2021/03/16 05:30:34;;;;;;;;;;;0.80;98.00;;;;;;5019527;28;19917;-68
2021/03/16 05:33:00;;;;;;;;;;;0.80;98.00;;;;;;5017192;28;20300;-67
2021/03/16 05:35:27;;;;;;;;;;;0.80;98.00;;;;;;5032789;28;19960;-68
2021/03/16 05:37:53;;;;;;;;;;;0.80;98.00;;;;;;5026101;28;19940;-70
2021/03/16 05:40:18;;;;;;;;;;;0.80;98.00;;;;;;4927150;28;2527387;-68
2021/03/16 05:42:44;;;;;;;;;;;0.80;98.00;;;;;;5021089;28;20318;-68
2021/03/16 05:45:10;;;;;;;;;;;0.80;98.00;;;;;;5013755;28;19918;-68
2021/03/16 05:47:37;;;;;;;;;;;0.80;98.00;;;;;;5019091;28;19920;-68
2021/03/16 05:50:03;;;;;;;;;;;0.80;98.00;;;;;;5034935;28;19925;-68
2021/03/16 05:52:29;;;;;;;;;;;0.80;98.00;;;;;;5031141;28;19914;-70
2021/03/16 05:54:54;;;;;;;;;;;0.80;98.00;;;;;;5016413;28;20257;-68
2021/03/16 05:57:21;;;;;;;;;;;0.80;98.00;;;;;;5016223;28;19944;-68
2021/03/16 05:59:52;;;;;;;;;;;0.90;98.00;;;;;;5014856;28;19910;-69
2021/03/16 06:02:18;;;;;;;;;;;0.90;98.00;;;;;;5020034;28;20008;-69
2021/03/16 06:04:44;;;;;;;;;;;0.90;98.00;;;;;;5024010;28;19993;-69
2021/03/16 06:07:15;;;;;;;;;;;0.90;98.00;;;;;;5019036;28;19914;-69
2021/03/16 06:09:41;;;;;;;;;;;0.90;98.00;;;;;;5029230;28;19917;-69
2021/03/16 06:12:08;;;;;;;;;;;0.90;98.00;;;;;;5020367;28;20028;-69
2021/03/16 06:14:34;;;;;;;;;;;0.90;98.00;;;;;;5010081;28;19925;-70
2021/03/16 06:17:01;;;;;;;;;;;0.90;98.00;;;;;;5021439;28;19921;-69
2021/03/16 06:19:33;;;;;;;;;;;0.90;98.00;;;;;;5022400;28;20284;-70
2021/03/16 06:22:05;;;;;;;;;;;0.90;98.00;;;;;;5016880;28;19941;-70
2021/03/16 06:24:31;;;;;;;;;;;1.00;98.00;;;;;;5042079;28;19913;-70
2021/03/16 06:26:57;;;;;;;;;;;0.90;98.00;;;;;;5022679;28;20495;-70
2021/03/16 06:29:23;;;;;;;;;;;0.90;98.00;;;;;;5016405;28;20367;-70
2021/03/16 06:31:49;;;;;;;;;;;0.90;98.00;;;;;;5016774;28;19996;-69
2021/03/16 06:34:25;;;;;;;;;;;1.00;98.00;;;;;;5019721;28;19918;-69
2021/03/16 06:36:58;;;;;;;;;;;1.00;98.00;;;;;;5022057;28;20257;-69
2021/03/16 06:39:24;;;;;;;;;;;1.00;98.00;;;;;;5024755;28;19967;-69
2021/03/16 06:41:50;;;;;;;;;;;1.00;98.00;;;;;;5034106;28;20309;-68
2021/03/16 06:44:17;;;;;;;;;;;1.00;98.00;;;;;;5034896;28;19952;-70
2021/03/16 06:46:43;;;;;;;;;;;1.00;98.00;;;;;;5035969;28;19919;-70
2021/03/16 06:49:19;;;;;;;;;;;1.00;98.00;;;;;;5034454;28;19913;-70
2021/03/16 06:51:45;;;;;;;;;;;1.00;98.00;;;;;;5035331;28;20043;-69
2021/03/16 06:54:17;;;;;;;;;;;1.00;98.00;;;;;;5036050;28;20221;-69
2021/03/16 06:56:51;;;;;;;;;;;1.00;98.00;;;;;;5035089;28;19913;-70
2021/03/16 06:59:24;;;;;;;;;;;1.00;98.00;;;;;;5034677;28;19913;-70
2021/03/16 07:01:49;;;;;;;;;;;1.10;98.00;;;;;;5035773;28;19913;-70
2021/03/16 07:04:16;;;;;;;;;;;1.10;98.00;;;;;;5035754;28;20257;-70
2021/03/16 07:06:41;;;;;;;;;;;1.10;98.00;;;;;;5035885;28;19909;-68
2021/03/16 07:09:10;;;;;;;;;;;1.10;98.00;;;;;;5035989;28;20233;-68
2021/03/16 07:11:35;;;;;;;;;;;1.10;98.00;;;;;;5035692;28;19913;-69
2021/03/16 07:14:02;;;;;;;;;;;1.10;98.00;;;;;;5032355;28;19958;-69
2021/03/16 07:16:27;;;;;;;;;;;1.20;98.00;;;;;;5035315;28;19924;-70
2021/03/16 07:18:53;;;;;;;;;;;1.20;98.00;;;;;;5022449;28;19913;-69
2021/03/16 07:21:20;;;;;;;;;;;1.20;98.00;;;;;;5035729;28;19959;-68
2021/03/16 07:23:50;;;;;;;;;;;1.30;98.00;;;;;;5035339;28;20326;-69
2021/03/16 07:26:16;;;;;;;;;;;1.30;98.00;;;;;;5034404;28;20341;-69
2021/03/16 07:28:46;;;;;;;;;;;1.30;98.00;;;;;;5033738;28;20008;-69
2021/03/16 07:31:13;;;;;;;;;;;1.30;98.00;;;;;;5023203;28;20048;-71
2021/03/16 07:33:38;;;;;;;;;;;1.30;98.00;;;;;;5030055;28;19948;-69
2021/03/16 07:36:04;;;;;;;;;;;1.30;98.00;;;;;;5035556;28;20026;-70
2021/03/16 07:38:29;;;;;;;;;;;1.40;98.00;;;;;;5035470;28;20250;-70
2021/03/16 07:40:55;;;;;;;;;;;1.50;98.00;;;;;;5035457;28;19921;-70
2021/03/16 07:43:34;;;;;;;;;;;1.60;98.00;;;;;;5035180;28;19913;-71
2021/03/16 07:46:06;;;;;;;;;;;1.60;98.00;;;;;;5035230;28;19913;-70
2021/03/16 07:48:32;;;;;;;;;;;1.60;98.00;;;;;;5035438;28;20199;-71
2021/03/16 07:51:07;;;;;;;;;;;1.70;98.00;;;;;;5035475;28;20000;-71
2021/03/16 07:53:33;;;;;;;;;;;1.80;98.00;;;;;;5035344;28;20237;-70
2021/03/16 07:56:05;;;;;;;;;;;1.80;98.00;;;;;;5035175;28;19921;-70
2021/03/16 07:58:30;;;;;;;;;;;1.80;98.00;;;;;;5014425;28;19964;-70
2021/03/16 08:01:08;;;;;;;;;;;1.70;98.00;;;;;;5016607;28;19913;-71
2021/03/16 08:03:34;;;;;;;;;;;1.70;98.00;;;;;;5035271;28;19939;-69
2021/03/16 08:05:59;;;;;;;;;;;1.80;98.00;;;;;;5035082;28;19913;-70
2021/03/16 08:08:25;;;;;;;;;;;1.80;98.00;;;;;;5036133;28;19920;-70
2021/03/16 08:10:50;;;;;;;;;;;1.90;98.00;;;;;;5038916;28;19913;-69
2021/03/16 08:13:17;;;;;;;;;;;1.90;98.00;;;;;;5038556;28;20080;-70
2021/03/16 08:15:47;;;;;;;;;;;2.00;98.00;;;;;;5037653;28;19935;-70
2021/03/16 08:18:13;;;;;;;;;;;2.00;98.00;;;;;;5052221;28;19963;-70
2021/03/16 08:20:39;;;;;;;;;;;1.90;98.00;;;;;;5037827;28;19913;-68
2021/03/16 08:23:09;;;;;;;;;;;2.00;98.00;;;;;;5038308;28;20254;-70
2021/03/16 08:25:35;;;;;;;;;;;2.00;98.00;;;;;;5038367;28;20209;-71
2021/03/16 08:28:07;;;;;;;;;;;2.00;98.00;;;;;;5038616;28;19913;-70
2021/03/16 08:30:34;;;;;;;;;;;2.00;98.00;;;;;;5036985;28;19945;-70
2021/03/16 08:33:07;;;;;;;;;;;2.10;98.00;;;;;;5038427;28;20004;-69
2021/03/16 08:35:32;;;;;;;;;;;2.20;98.00;;;;;;5021006;28;19968;-70
2021/03/16 08:37:58;;;;;;;;;;;2.30;98.00;;;;;;5034480;28;19951;-69
2021/03/16 08:40:24;;;;;;;;;;;2.30;98.00;;;;;;5037907;28;19921;-71
2021/03/16 08:42:50;;;;;;;;;;;2.30;98.00;;;;;;5038078;28;19917;-70
2021/03/16 08:45:26;;;;;;;;;;;2.30;98.00;;;;;;5036860;28;19920;-70
2021/03/16 08:47:52;;;;;;;;;;;2.40;98.00;;;;;;5025470;28;19924;-69
2021/03/16 08:50:21;;;;;;;;;;;2.40;98.00;;;;;;5037868;28;19913;-70
2021/03/16 08:52:46;;;;;;;;;;;2.50;98.00;;;;;;5038157;28;19913;-69
2021/03/16 08:55:21;;;;;;;;;;;2.50;98.00;;;;;;5037444;28;19932;-70
2021/03/16 08:57:46;;;;;;;;;;;2.60;98.00;;;;;;5037434;28;19920;-69
2021/03/16 09:00:13;;;;;;;;;;;2.80;98.00;;;;;;5036775;28;20218;-69
2021/03/16 09:02:39;;;;;;;;;;;2.80;98.00;;;;;;5037991;28;19909;-69
2021/03/16 09:05:05;;;;;;;;;;;2.80;98.00;;;;;;5037793;28;19913;-69
2021/03/16 09:07:32;;;;;;;;;;;2.90;98.00;;;;;;5042903;28;19917;-70
2021/03/16 09:10:03;;;;;;;;;;;2.90;98.00;;;;;;5019948;28;19917;-70
2021/03/16 09:12:29;;;;;;;;;;;2.90;97.60;;;;;;5037470;28;19913;-68
2021/03/16 09:15:05;;;;;;;;;;;2.90;98.00;;;;;;5036240;28;19917;-69
2021/03/16 09:17:34;;;;;;;;;;;3.00;97.70;;;;;;5037530;28;19943;-70
2021/03/16 09:20:18;;;;;;;;;;;3.00;97.40;;;;;;5015784;28;19918;-68
2021/03/16 09:22:45;;;;;;;;;;;3.00;97.00;;;;;;5033290;28;20206;-70
2021/03/16 09:25:11;;;;;;;;;;;3.00;97.30;;;;;;5037040;28;19917;-69
2021/03/16 09:27:39;;;;;;;;;;;3.10;97.50;;;;;;5037043;28;19971;-69
2021/03/16 09:30:05;;;;;;;;;;;3.10;96.90;;;;;;5036103;28;19913;-68
2021/03/16 09:32:31;;;;;;;;;;;3.10;96.90;;;;;;5019955;28;19916;-70
2021/03/16 09:34:57;;;;;;;;;;;3.00;97.00;;;;;;5036980;28;19928;-70
2021/03/16 09:37:22;;;;;;;;;;;3.10;97.30;;;;;;5037457;28;19935;-70
2021/03/16 09:39:52;;;;;;;;;;;3.10;96.50;;;;;;5026644;28;19925;-70
2021/03/16 09:42:17;;;;;;;;;;;3.00;96.70;;;;;;5037233;28;19909;-70
2021/03/16 09:44:44;;;;;;;;;;;3.10;96.70;;;;;;5035993;28;20191;-70
2021/03/16 09:47:10;;;;;;;;;;;3.10;96.90;;;;;;5036815;28;19913;-70
2021/03/16 09:49:40;;;;;;;;;;;3.10;97.20;;;;;;5036720;28;19959;-70
2021/03/16 09:52:10;;;;;;;;;;;3.10;97.00;;;;;;5036979;28;19913;-69
2021/03/16 09:54:40;;;;;;;;;;;3.10;97.00;;;;;;5036226;28;20356;-68
2021/03/16 09:57:09;;;;;;;;;;;3.20;97.00;;;;;;5036144;28;19913;-70
2021/03/16 09:59:36;;;;;;;;;;;3.30;96.50;;;;;;5035304;28;19909;-68
2021/03/16 10:02:02;;;;;;;;;;;3.40;96.20;;;;;;5036643;28;19913;-68
2021/03/16 10:04:28;;;;;;;;;;;3.30;95.40;;;;;;5035512;28;20313;-69
2021/03/16 10:06:56;;;;;;;;;;;3.20;96.40;;;;;;5030055;28;19920;-69
2021/03/16 10:09:22;;;;;;;;;;;3.10;96.00;;;;;;5036649;28;19910;-70
2021/03/16 10:11:48;;;;;;;;;;;3.00;96.80;;;;;;5036744;28;19913;-69
2021/03/16 10:14:23;;;;;;;;;;;3.00;97.20;;;;;;5035079;28;19912;-68
2021/03/16 10:16:52;;;;;;;;;;;2.80;97.80;;;;;;5021445;28;19920;-69
2021/03/16 10:19:18;;;;;;;;;;;2.70;97.60;;;;;;5036296;28;20225;-70
2021/03/16 10:21:44;;;;;;;;;;;2.60;98.00;;;;;;5035416;28;20013;-69
2021/03/16 10:24:09;;;;;;;;;;;2.60;98.00;;;;;;5036555;28;19917;-72
2021/03/16 10:26:35;;;;;;;;;;;2.30;98.00;;;;;;5036338;28;19963;-71
2021/03/16 10:29:11;;;;;;;;;;;2.10;98.00;;;;;;5035338;28;20364;-72
2021/03/16 10:31:36;;;;;;;;;;;1.80;98.00;;;;;;5035542;28;19919;-72
2021/03/16 10:34:02;;;;;;;;;;;1.60;98.00;;;;;;5036222;28;19909;-71
2021/03/16 10:36:34;;;;;;;;;;;1.50;98.00;;;;;;5036085;28;20393;-72
2021/03/16 10:38:59;;;;;;;;;;;1.60;98.00;;;;;;5036017;28;19913;-72
2021/03/16 10:41:25;;;;;;;;;;;1.70;98.00;;;;;;5027615;28;19921;-71
2021/03/16 10:43:51;;;;;;;;;;;1.80;98.00;;;;;;5034112;28;19917;-71
2021/03/16 10:46:16;;;;;;;;;;;2.00;98.00;;;;;;5036076;28;19934;-71
2021/03/16 10:48:42;;;;;;;;;;;2.20;98.00;;;;;;5035776;28;19956;-71
2021/03/16 10:51:07;;;;;;;;;;;2.40;98.00;;;;;;5035419;28;19921;-70
2021/03/16 10:53:33;;;;;;;;;;;2.80;98.00;;;;;;5035847;28;19917;-71
2021/03/16 10:55:59;;;;;;;;;;;3.30;98.00;;;;;;5035760;28;19956;-71
2021/03/16 10:58:24;;;;;;;;;;;3.60;98.00;;;;;;5035486;28;20298;-71
2021/03/16 11:00:50;;;;;;;;;;;3.70;98.00;;;;;;5033982;28;20302;-71
2021/03/16 11:03:15;;;;;;;;;;;3.50;97.60;;;;;;5035575;28;19917;-71
2021/03/16 11:05:41;;;;;;;;;;;3.40;98.00;;;;;;5035525;28;19914;-72
2021/03/16 11:08:06;;;;;;;;;;;3.30;97.40;;;;;;5035972;28;19932;-69
2021/03/16 11:10:32;;;;;;;;;;;3.50;97.90;;;;;;5035126;28;19913;-70
2021/03/16 11:13:00;;;;;;;;;;;3.60;96.90;;;;;;5031651;28;19940;-70
2021/03/16 11:15:25;;;;;;;;;;;3.60;95.30;;;;;;5033485;28;19923;-71
2021/03/16 11:17:51;;;;;;;;;;;3.80;96.20;;;;;;5035928;28;20007;-69
2021/03/16 11:20:16;;;;;;;;;;;4.10;95.50;;;;;;5035381;28;20514;-71
2021/03/16 11:22:42;;;;;;;;;;;4.20;93.60;;;;;;5035633;28;20278;-71
2021/03/16 11:25:08;;;;;;;;;;;4.30;93.50;;;;;;5035364;28;19913;-69
2021/03/16 11:27:34;;;;;;;;;;;4.40;93.70;;;;;;5035450;28;19913;-70
2021/03/16 11:30:00;;;;;;;;;;;4.60;92.20;;;;;;5034529;28;19955;-68
2021/03/16 11:32:25;;;;;;;;;;;4.60;92.50;;;;;;5035009;28;20012;-69
2021/03/16 11:34:51;;;;;;;;;;;4.70;92.40;;;;;;5035646;28;20000;-69
2021/03/16 11:37:16;;;;;;;;;;;4.90;91.70;;;;;;5035431;28;19979;-68
2021/03/16 11:39:44;;;;;;;;;;;4.80;89.10;;;;;;5035093;28;20203;-69
2021/03/16 11:42:10;;;;;;;;;;;4.50;90.10;;;;;;5035169;28;19916;-69
2021/03/16 11:44:35;;;;;;;;;;;4.30;91.10;;;;;;5016209;28;19913;-69
2021/03/16 11:47:01;;;;;;;;;;;4.30;90.90;;;;;;5034240;28;19914;-69
2021/03/16 11:49:26;;;;;;;;;;;4.30;90.90;;;;;;5039086;28;19917;-69
2021/03/16 11:51:52;;;;;;;;;;;4.30;91.60;;;;;;5039057;28;19920;-68
2021/03/16 11:54:17;;;;;;;;;;;4.30;92.00;;;;;;5048995;28;19913;-68
2021/03/16 11:56:43;;;;;;;;;;;4.20;91.50;;;;;;5037922;28;19913;-69
2021/03/16 11:59:08;;;;;;;;;;;4.20;91.60;;;;;;5030986;28;19967;-69
2021/03/16 12:01:34;;;;;;;;;;;4.30;90.60;;;;;;5038532;28;19913;-69
2021/03/16 12:03:59;;;;;;;;;;;4.40;91.00;;;;;;5046047;28;19917;-68
2021/03/16 12:06:25;;;;;;;;;;;4.30;89.30;;;;;;5049368;28;20332;-68
2021/03/16 12:08:50;;;;;;;;;;;4.30;89.10;;;;;;5038999;28;19909;-69
2021/03/16 12:11:16;;;;;;;;;;;4.40;89.30;;;;;;5037495;28;20380;-70
2021/03/16 12:13:41;;;;;;;;;;;4.40;90.20;;;;;;5039980;28;19913;-68
2021/03/16 12:16:07;;;;;;;;;;;4.40;88.20;;;;;;5028923;28;19925;-68
2021/03/16 12:18:32;;;;;;;;;;;4.20;89.00;;;;;;5040796;28;20217;-67
2021/03/16 12:20:58;;;;;;;;;;;4.10;90.70;;;;;;5037589;28;20617;-67
2021/03/16 12:23:25;;;;;;;;;;;4.10;90.10;;;;;;5037547;28;20333;-67
2021/03/16 12:25:53;;;;;;;;;;;4.10;90.50;;;;;;5034195;28;19920;-67
2021/03/16 12:28:18;;;;;;;;;;;4.20;90.30;;;;;;5033857;28;19924;-67
2021/03/16 12:30:44;;;;;;;;;;;4.20;90.40;;;;;;5036283;28;19917;-70
2021/03/16 12:33:10;;;;;;;;;;;4.40;89.70;;;;;;5035010;28;19917;-68
2021/03/16 12:35:35;;;;;;;;;;;4.50;90.70;;;;;;5035470;28;20051;-67
2021/03/16 12:38:01;;;;;;;;;;;4.50;90.70;;;;;;5036604;28;20015;-69
2021/03/16 12:40:28;;;;;;;;;;;4.50;90.10;;;;;;5036428;28;19925;-68
2021/03/16 12:42:53;;;;;;;;;;;4.40;90.00;;;;;;5035519;28;20341;-67
2021/03/16 12:45:19;;;;;;;;;;;4.30;90.30;;;;;;5030819;28;19913;-68
2021/03/16 12:47:44;;;;;;;;;;;4.30;90.70;;;;;;5035089;28;19913;-69
2021/03/16 12:50:10;;;;;;;;;;;4.10;91.00;;;;;;5034633;28;19921;-68
2021/03/16 12:52:38;;;;;;;;;;;4.10;91.70;;;;;;5036953;28;19913;-69
2021/03/16 12:55:05;;;;;;;;;;;4.20;92.00;;;;;;5035700;28;19925;-68
2021/03/16 12:57:31;;;;;;;;;;;4.30;92.10;;;;;;5035888;28;20007;-68
2021/03/16 12:59:56;;;;;;;;;;;4.50;92.40;;;;;;5034753;28;20288;-69
2021/03/16 13:02:22;;;;;;;;;;;4.50;92.30;;;;;;5054134;28;20272;-69
2021/03/16 13:04:48;;;;;;;;;;;4.50;91.90;;;;;;5040977;28;20024;-68
2021/03/16 13:07:13;;;;;;;;;;;4.30;92.40;;;;;;5034927;28;19957;-68
2021/03/16 13:09:39;;;;;;;;;;;4.20;93.30;;;;;;5038792;28;19972;-67
2021/03/16 13:12:04;;;;;;;;;;;4.20;92.90;;;;;;5041479;28;19923;-67
2021/03/16 13:14:30;;;;;;;;;;;4.10;94.00;;;;;;5034623;28;19925;-67
2021/03/16 13:16:56;;;;;;;;;;;4.10;94.20;;;;;;5035359;28;20338;-67
2021/03/16 13:19:21;;;;;;;;;;;4.00;94.90;;;;;;5035920;28;20352;-67
2021/03/16 13:21:47;;;;;;;;;;;3.90;95.20;;;;;;5034899;28;20285;-69
2021/03/16 13:24:12;;;;;;;;;;;3.80;95.50;;;;;;5029099;28;19920;-69
2021/03/16 13:26:38;;;;;;;;;;;3.70;95.90;;;;;;5034672;28;19944;-69
2021/03/16 13:29:04;;;;;;;;;;;3.50;95.50;;;;;;5034732;28;19913;-69
2021/03/16 13:31:30;;;;;;;;;;;3.30;96.20;;;;;;5049238;28;20027;-69
2021/03/16 13:33:56;;;;;;;;;;;3.10;96.60;;;;;;5034983;28;20361;-70
2021/03/16 13:36:22;;;;;;;;;;;3.10;97.10;;;;;;5035032;28;19952;-70
2021/03/16 13:38:47;;;;;;;;;;;3.20;97.20;;;;;;5035269;28;19971;-70
2021/03/16 13:41:13;;;;;;;;;;;3.30;96.90;;;;;;5035261;28;19921;-70
2021/03/16 13:43:39;;;;;;;;;;;3.40;96.80;;;;;;5034099;28;19913;-69
2021/03/16 13:46:04;;;;;;;;;;;3.50;96.70;;;;;;5034798;28;19975;-70
2021/03/16 13:48:30;;;;;;;;;;;3.30;96.20;;;;;;5027953;28;20325;-70
2021/03/16 13:50:55;;;;;;;;;;;2.90;97.10;;;;;;5036812;28;19913;-70
2021/03/16 13:53:21;;;;;;;;;;;2.40;97.70;;;;;;5032652;28;19949;-70
2021/03/16 13:55:46;;;;;;;;;;;2.20;98.00;;;;;;5033982;28;20874;-69
2021/03/16 13:58:12;;;;;;;;;;;2.20;98.00;;;;;;5036051;28;19956;-69
2021/03/16 14:00:38;;;;;;;;;;;2.30;98.00;;;;;;5029902;28;20344;-68
2021/03/16 14:03:04;;;;;;;;;;;2.40;98.00;;;;;;5036584;28;19920;-69
2021/03/16 14:05:30;;;;;;;;;;;2.70;97.80;;;;;;5042988;28;19921;-68
2021/03/16 14:07:55;;;;;;;;;;;3.20;98.00;;;;;;5040279;28;19995;-70
2021/03/16 14:10:21;;;;;;;;;;;4.00;97.50;;;;;;5036130;28;19913;-70
2021/03/16 14:12:47;;;;;;;;;;;4.50;94.20;;;;;;5039219;28;20325;-71
2021/03/16 14:15:13;;;;;;;;;;;5.00;92.10;;;;;;5035424;28;19924;-68
2021/03/16 14:17:39;;;;;;;;;;;5.10;89.80;;;;;;5035510;28;19920;-69
2021/03/16 14:20:06;;;;;;;;;;;5.00;86.80;;;;;;5035433;28;19921;-70
2021/03/16 14:22:31;;;;;;;;;;;4.90;88.60;;;;;;5035170;28;19920;-69
2021/03/16 14:24:57;;;;;;;;;;;5.10;89.70;;;;;;5035864;28;19916;-69
2021/03/16 14:27:22;;;;;;;;;;;5.30;87.30;;;;;;5035802;28;19913;-69
2021/03/16 14:29:48;;;;;;;;;;;5.80;88.80;;;;;;5022844;28;20191;-69